menslife.com alexa rank chart, menslife.com alexa rank daily changes

menslife.com alexa rank chart, menslife.com alexa rank daily changes

menslife.com
Actual rank:
198 208

RANK HISTORY

Date Rank Diff
2017/10/18 198 208 -2 174
2017/10/17 200 382 +323
2017/10/16 200 059 +2 383
2017/10/14 197 676 -86
2017/10/13 197 762 +3 229
2017/10/12 194 533 +1 018
2017/10/11 193 515 +1 171
2017/10/10 192 344 -938
2017/10/09 193 282 -1 843
2017/10/08 195 125 -120
2017/10/07 195 245 -6 666
2017/10/06 201 911 -2 376
2017/10/05 204 287 -286
2017/10/04 204 573 -968
2017/10/03 205 541 -2 044
2017/10/02 207 585 +860
2017/10/01 206 725 +407
2017/09/30 206 318 -10 942
2017/09/29 217 260 -1 988
2017/09/28 219 248 -1 248
2017/09/27 220 496 -656
2017/09/26 221 152 +2 106
2017/09/25 219 046 +2 257
2017/09/24 216 789 +3 223
2017/09/23 213 566 -4 463
2017/09/22 218 029 -527
2017/09/20 218 556 -2 362
2017/09/19 220 918 +189
2017/09/18 220 729 -828
2017/09/17 221 557 -2 073
2017/09/16 223 630 -1 973
2017/09/15 225 603 +4 703
2017/09/14 220 900 +5 559
2017/09/13 215 341 +1 797
2017/09/12 213 544 -915
2017/09/11 214 459 +1 298
2017/09/10 213 161 +356
2017/09/09 212 805 -260
2017/09/08 213 065 +5 916
2017/09/07 207 149 +8 690
2017/09/06 198 459 +4 327
2017/09/05 194 132 +1 946
2017/09/04 192 186 +1 124
2017/09/03 191 062 -1 999
2017/09/02 193 061 +1 503
2017/09/01 191 558 -3 958
2017/08/31 195 516 -43
2017/08/30 195 559 +718
2017/08/29 194 841 +3 177
2017/08/28 191 664 +2 044
2017/08/27 189 620 -680
2017/08/26 190 300 -1 819
2017/08/25 192 119 +2 281
2017/08/24 189 838 +937
2017/08/23 188 901 -54
2017/08/22 188 955 -1 208
2017/08/21 190 163 -224
2017/08/20 190 387 +2 511
2017/08/19 187 876

WIDGET FOR YOUR SITE

DOMAINS WITH THE NEAREST RANK

Domain Rank
dargaud.com 198 203
graninfo.com 198 204
kplctv.com 198 205
totalebook27.com 198 206
mxphone.net 198 207
menslife.com 198 208
temptingangels.org 198 209
dragzine.com 198 210
timecardcalculator.net 198 211
allwidewallpapers.com 198 212
hd-only.org 198 213

DOMAINS WITH THE NEAREST RANK BY TLD .com

Domain Rank
googlechrome2017.com 198 199
dargaud.com 198 203
graninfo.com 198 204
kplctv.com 198 205
totalebook27.com 198 206
menslife.com 198 208
dragzine.com 198 210
allwidewallpapers.com 198 212
label-engine.com 198 216
citsgbt.com 198 217
playquiz2017.com 198 218